sensor_id;sensor_type;location;lat;lon;timestamp;P1;durP1;ratioP1;P2;durP2;ratioP2
71629;SDS011;59479;51.902;8.212;2023-04-15T00:01:08;6.00;;;3.53;;
71629;SDS011;59479;51.902;8.212;2023-04-15T00:03:33;7.47;;;4.00;;
71629;SDS011;59479;51.902;8.212;2023-04-15T00:05:59;6.67;;;4.03;;
71629;SDS011;59479;51.902;8.212;2023-04-15T00:08:25;7.45;;;3.67;;
71629;SDS011;59479;51.902;8.212;2023-04-15T00:10:51;8.47;;;4.00;;
71629;SDS011;59479;51.902;8.212;2023-04-15T00:13:17;8.65;;;4.30;;
71629;SDS011;59479;51.902;8.212;2023-04-15T00:15:42;6.57;;;4.20;;
71629;SDS011;59479;51.902;8.212;2023-04-15T00:18:07;7.00;;;4.13;;
71629;SDS011;59479;51.902;8.212;2023-04-15T00:20:33;7.60;;;4.00;;
71629;SDS011;59479;51.902;8.212;2023-04-15T00:22:59;8.38;;;4.10;;
71629;SDS011;59479;51.902;8.212;2023-04-15T00:25:24;8.03;;;3.90;;
71629;SDS011;59479;51.902;8.212;2023-04-15T00:27:50;8.48;;;3.92;;
71629;SDS011;59479;51.902;8.212;2023-04-15T00:30:15;7.90;;;4.77;;
71629;SDS011;59479;51.902;8.212;2023-04-15T00:32:41;6.60;;;3.73;;
71629;SDS011;59479;51.902;8.212;2023-04-15T00:35:06;7.77;;;4.30;;
71629;SDS011;59479;51.902;8.212;2023-04-15T00:37:32;7.05;;;4.22;;
71629;SDS011;59479;51.902;8.212;2023-04-15T00:39:59;8.77;;;4.50;;
71629;SDS011;59479;51.902;8.212;2023-04-15T00:42:25;6.40;;;3.93;;
71629;SDS011;59479;51.902;8.212;2023-04-15T00:44:50;9.45;;;4.40;;
71629;SDS011;59479;51.902;8.212;2023-04-15T00:47:16;7.13;;;4.63;;
71629;SDS011;59479;51.902;8.212;2023-04-15T00:49:42;7.15;;;4.15;;
71629;SDS011;59479;51.902;8.212;2023-04-15T00:52:08;8.40;;;4.30;;
71629;SDS011;59479;51.902;8.212;2023-04-15T00:54:33;6.87;;;4.40;;
71629;SDS011;59479;51.902;8.212;2023-04-15T00:56:59;7.22;;;4.20;;
71629;SDS011;59479;51.902;8.212;2023-04-15T00:59:25;9.30;;;5.13;;
71629;SDS011;59479;51.902;8.212;2023-04-15T01:01:51;7.25;;;4.72;;
71629;SDS011;59479;51.902;8.212;2023-04-15T01:04:17;9.02;;;5.05;;
71629;SDS011;59479;51.902;8.212;2023-04-15T01:06:42;7.70;;;5.05;;
71629;SDS011;59479;51.902;8.212;2023-04-15T01:09:07;7.33;;;4.23;;
71629;SDS011;59479;51.902;8.212;2023-04-15T01:11:32;8.97;;;5.20;;
71629;SDS011;59479;51.902;8.212;2023-04-15T01:13:58;9.33;;;5.20;;
71629;SDS011;59479;51.902;8.212;2023-04-15T01:16:24;9.23;;;5.33;;
71629;SDS011;59479;51.902;8.212;2023-04-15T01:18:49;7.95;;;4.53;;
71629;SDS011;59479;51.902;8.212;2023-04-15T01:21:16;8.38;;;4.95;;
71629;SDS011;59479;51.902;8.212;2023-04-15T01:23:42;7.87;;;4.73;;
71629;SDS011;59479;51.902;8.212;2023-04-15T01:26:11;8.25;;;4.78;;
71629;SDS011;59479;51.902;8.212;2023-04-15T01:28:36;7.22;;;4.80;;
71629;SDS011;59479;51.902;8.212;2023-04-15T01:31:09;8.60;;;4.90;;
71629;SDS011;59479;51.902;8.212;2023-04-15T01:33:39;10.45;;;4.75;;
71629;SDS011;59479;51.902;8.212;2023-04-15T01:36:05;10.32;;;4.95;;
71629;SDS011;59479;51.902;8.212;2023-04-15T01:38:32;9.90;;;5.30;;
71629;SDS011;59479;51.902;8.212;2023-04-15T01:40:58;8.18;;;4.90;;
71629;SDS011;59479;51.902;8.212;2023-04-15T01:43:24;7.87;;;4.67;;
71629;SDS011;59479;51.902;8.212;2023-04-15T01:45:49;8.27;;;4.72;;
71629;SDS011;59479;51.902;8.212;2023-04-15T01:48:15;7.83;;;5.50;;
71629;SDS011;59479;51.902;8.212;2023-04-15T01:50:40;8.30;;;4.93;;
71629;SDS011;59479;51.902;8.212;2023-04-15T01:53:06;8.70;;;5.47;;
71629;SDS011;59479;51.902;8.212;2023-04-15T01:55:32;9.02;;;4.53;;
71629;SDS011;59479;51.902;8.212;2023-04-15T01:57:58;8.93;;;4.77;;
71629;SDS011;59479;51.902;8.212;2023-04-15T02:00:23;6.80;;;4.70;;
71629;SDS011;59479;51.902;8.212;2023-04-15T02:02:49;9.17;;;5.20;;
71629;SDS011;59479;51.902;8.212;2023-04-15T02:05:14;9.50;;;5.20;;
71629;SDS011;59479;51.902;8.212;2023-04-15T02:07:41;9.43;;;5.07;;
71629;SDS011;59479;51.902;8.212;2023-04-15T02:10:07;9.32;;;5.20;;
71629;SDS011;59479;51.902;8.212;2023-04-15T02:12:34;8.93;;;5.65;;
71629;SDS011;59479;51.902;8.212;2023-04-15T02:14:59;9.00;;;5.20;;
71629;SDS011;59479;51.902;8.212;2023-04-15T02:17:25;9.20;;;5.33;;
71629;SDS011;59479;51.902;8.212;2023-04-15T02:19:50;7.93;;;5.30;;
71629;SDS011;59479;51.902;8.212;2023-04-15T02:22:16;9.85;;;5.07;;
71629;SDS011;59479;51.902;8.212;2023-04-15T02:24:42;9.07;;;5.00;;
71629;SDS011;59479;51.902;8.212;2023-04-15T02:27:08;10.10;;;5.28;;
71629;SDS011;59479;51.902;8.212;2023-04-15T02:29:33;8.30;;;5.20;;
71629;SDS011;59479;51.902;8.212;2023-04-15T02:31:58;10.23;;;5.30;;
71629;SDS011;59479;51.902;8.212;2023-04-15T02:34:24;10.33;;;5.80;;
71629;SDS011;59479;51.902;8.212;2023-04-15T02:36:51;9.65;;;5.68;;
71629;SDS011;59479;51.902;8.212;2023-04-15T02:39:20;11.35;;;6.10;;
71629;SDS011;59479;51.902;8.212;2023-04-15T02:41:45;9.43;;;5.40;;
71629;SDS011;59479;51.902;8.212;2023-04-15T02:44:15;12.52;;;6.13;;
71629;SDS011;59479;51.902;8.212;2023-04-15T02:46:42;10.68;;;5.95;;
71629;SDS011;59479;51.902;8.212;2023-04-15T02:49:08;10.17;;;5.70;;
71629;SDS011;59479;51.902;8.212;2023-04-15T02:51:33;10.97;;;6.03;;
71629;SDS011;59479;51.902;8.212;2023-04-15T02:53:58;9.80;;;5.27;;
71629;SDS011;59479;51.902;8.212;2023-04-15T02:56:24;11.03;;;6.50;;
71629;SDS011;59479;51.902;8.212;2023-04-15T02:58:49;12.90;;;6.17;;
71629;SDS011;59479;51.902;8.212;2023-04-15T03:01:15;9.32;;;5.38;;
71629;SDS011;59479;51.902;8.212;2023-04-15T03:03:40;10.20;;;6.27;;
71629;SDS011;59479;51.902;8.212;2023-04-15T03:06:06;10.00;;;6.32;;
71629;SDS011;59479;51.902;8.212;2023-04-15T03:08:32;10.13;;;6.10;;
71629;SDS011;59479;51.902;8.212;2023-04-15T03:10:58;10.80;;;6.00;;
71629;SDS011;59479;51.902;8.212;2023-04-15T03:13:24;9.65;;;6.07;;
71629;SDS011;59479;51.902;8.212;2023-04-15T03:15:50;10.87;;;5.87;;
71629;SDS011;59479;51.902;8.212;2023-04-15T03:18:16;13.07;;;6.40;;
71629;SDS011;59479;51.902;8.212;2023-04-15T03:20:41;9.23;;;6.07;;
71629;SDS011;59479;51.902;8.212;2023-04-15T03:23:06;9.50;;;5.70;;
71629;SDS011;59479;51.902;8.212;2023-04-15T03:25:31;10.25;;;6.70;;
71629;SDS011;59479;51.902;8.212;2023-04-15T03:27:58;12.70;;;6.33;;
71629;SDS011;59479;51.902;8.212;2023-04-15T03:30:24;10.47;;;6.40;;
71629;SDS011;59479;51.902;8.212;2023-04-15T03:32:49;13.00;;;6.00;;
71629;SDS011;59479;51.902;8.212;2023-04-15T03:35:15;10.27;;;6.17;;
71629;SDS011;59479;51.902;8.212;2023-04-15T03:37:40;11.57;;;6.53;;
71629;SDS011;59479;51.902;8.212;2023-04-15T03:40:06;10.70;;;6.30;;
71629;SDS011;59479;51.902;8.212;2023-04-15T03:42:32;12.18;;;6.53;;
71629;SDS011;59479;51.902;8.212;2023-04-15T03:44:57;11.90;;;6.80;;
71629;SDS011;59479;51.902;8.212;2023-04-15T03:47:22;10.37;;;6.10;;
71629;SDS011;59479;51.902;8.212;2023-04-15T03:49:48;11.77;;;6.82;;
71629;SDS011;59479;51.902;8.212;2023-04-15T03:52:13;12.45;;;6.68;;
71629;SDS011;59479;51.902;8.212;2023-04-15T03:54:38;11.20;;;7.10;;
71629;SDS011;59479;51.902;8.212;2023-04-15T03:57:04;11.60;;;7.03;;
71629;SDS011;59479;51.902;8.212;2023-04-15T03:59:30;10.57;;;6.18;;
71629;SDS011;59479;51.902;8.212;2023-04-15T04:01:55;11.53;;;6.53;;
71629;SDS011;59479;51.902;8.212;2023-04-15T04:04:20;11.57;;;6.60;;
71629;SDS011;59479;51.902;8.212;2023-04-15T04:06:46;10.70;;;6.30;;
71629;SDS011;59479;51.902;8.212;2023-04-15T04:09:11;9.33;;;6.07;;
71629;SDS011;59479;51.902;8.212;2023-04-15T04:11:37;11.07;;;6.23;;
71629;SDS011;59479;51.902;8.212;2023-04-15T04:14:02;12.27;;;6.53;;
71629;SDS011;59479;51.902;8.212;2023-04-15T04:16:27;10.60;;;6.05;;
71629;SDS011;59479;51.902;8.212;2023-04-15T04:18:52;10.63;;;6.50;;
71629;SDS011;59479;51.902;8.212;2023-04-15T04:21:18;11.47;;;6.50;;
71629;SDS011;59479;51.902;8.212;2023-04-15T04:23:43;11.00;;;6.70;;
71629;SDS011;59479;51.902;8.212;2023-04-15T04:26:09;11.48;;;6.57;;
71629;SDS011;59479;51.902;8.212;2023-04-15T04:28:34;12.00;;;6.95;;
71629;SDS011;59479;51.902;8.212;2023-04-15T04:31:00;12.50;;;6.77;;
71629;SDS011;59479;51.902;8.212;2023-04-15T04:33:26;14.15;;;7.05;;
71629;SDS011;59479;51.902;8.212;2023-04-15T04:35:51;12.97;;;7.67;;
71629;SDS011;59479;51.902;8.212;2023-04-15T04:38:16;13.60;;;7.77;;
71629;SDS011;59479;51.902;8.212;2023-04-15T04:40:42;13.47;;;7.77;;
71629;SDS011;59479;51.902;8.212;2023-04-15T04:43:07;13.83;;;8.23;;
71629;SDS011;59479;51.902;8.212;2023-04-15T04:45:33;15.30;;;8.30;;
71629;SDS011;59479;51.902;8.212;2023-04-15T04:47:58;14.67;;;8.50;;
71629;SDS011;59479;51.902;8.212;2023-04-15T04:50:24;14.53;;;7.80;;
71629;SDS011;59479;51.902;8.212;2023-04-15T04:52:49;13.57;;;7.90;;
71629;SDS011;59479;51.902;8.212;2023-04-15T04:55:15;12.98;;;7.57;;
71629;SDS011;59479;51.902;8.212;2023-04-15T04:57:40;10.80;;;6.60;;
71629;SDS011;59479;51.902;8.212;2023-04-15T05:00:06;11.93;;;6.80;;
71629;SDS011;59479;51.902;8.212;2023-04-15T05:02:33;12.02;;;7.03;;
71629;SDS011;59479;51.902;8.212;2023-04-15T05:04:58;12.43;;;6.97;;
71629;SDS011;59479;51.902;8.212;2023-04-15T05:07:23;14.93;;;7.47;;
71629;SDS011;59479;51.902;8.212;2023-04-15T05:09:49;11.17;;;6.37;;
71629;SDS011;59479;51.902;8.212;2023-04-15T05:12:14;12.20;;;6.97;;
71629;SDS011;59479;51.902;8.212;2023-04-15T05:14:40;11.87;;;6.77;;
71629;SDS011;59479;51.902;8.212;2023-04-15T05:17:06;13.80;;;6.88;;
71629;SDS011;59479;51.902;8.212;2023-04-15T05:19:32;12.90;;;6.87;;
71629;SDS011;59479;51.902;8.212;2023-04-15T05:21:57;10.23;;;6.70;;
71629;SDS011;59479;51.902;8.212;2023-04-15T05:24:22;14.65;;;6.80;;
71629;SDS011;59479;51.902;8.212;2023-04-15T05:26:48;11.15;;;6.82;;
71629;SDS011;59479;51.902;8.212;2023-04-15T05:29:13;12.20;;;6.30;;
71629;SDS011;59479;51.902;8.212;2023-04-15T05:31:38;12.33;;;7.17;;
71629;SDS011;59479;51.902;8.212;2023-04-15T05:34:04;12.80;;;7.67;;
71629;SDS011;59479;51.902;8.212;2023-04-15T05:36:29;12.53;;;7.07;;
71629;SDS011;59479;51.902;8.212;2023-04-15T05:38:55;12.52;;;6.40;;
71629;SDS011;59479;51.902;8.212;2023-04-15T05:41:20;12.07;;;7.67;;
71629;SDS011;59479;51.902;8.212;2023-04-15T05:43:46;14.30;;;6.53;;
71629;SDS011;59479;51.902;8.212;2023-04-15T05:46:11;12.83;;;6.93;;
71629;SDS011;59479;51.902;8.212;2023-04-15T05:48:36;10.73;;;6.73;;
71629;SDS011;59479;51.902;8.212;2023-04-15T05:51:02;10.80;;;6.33;;
71629;SDS011;59479;51.902;8.212;2023-04-15T05:53:27;13.45;;;7.00;;
71629;SDS011;59479;51.902;8.212;2023-04-15T05:55:53;10.53;;;6.30;;
71629;SDS011;59479;51.902;8.212;2023-04-15T05:58:18;12.03;;;7.07;;
71629;SDS011;59479;51.902;8.212;2023-04-15T06:00:43;14.17;;;7.07;;
71629;SDS011;59479;51.902;8.212;2023-04-15T06:03:10;13.05;;;7.07;;
71629;SDS011;59479;51.902;8.212;2023-04-15T06:05:35;14.47;;;7.27;;
71629;SDS011;59479;51.902;8.212;2023-04-15T06:08:01;11.90;;;7.23;;
71629;SDS011;59479;51.902;8.212;2023-04-15T06:10:26;13.10;;;6.90;;
71629;SDS011;59479;51.902;8.212;2023-04-15T06:12:52;12.10;;;6.73;;
71629;SDS011;59479;51.902;8.212;2023-04-15T06:15:17;13.47;;;6.93;;
71629;SDS011;59479;51.902;8.212;2023-04-15T06:17:42;11.97;;;6.57;;
71629;SDS011;59479;51.902;8.212;2023-04-15T06:20:08;12.13;;;6.83;;
71629;SDS011;59479;51.902;8.212;2023-04-15T06:22:35;14.35;;;7.15;;
71629;SDS011;59479;51.902;8.212;2023-04-15T06:25:01;15.02;;;8.45;;
71629;SDS011;59479;51.902;8.212;2023-04-15T06:27:26;12.93;;;6.80;;
71629;SDS011;59479;51.902;8.212;2023-04-15T06:29:51;14.67;;;7.47;;
71629;SDS011;59479;51.902;8.212;2023-04-15T06:32:17;14.73;;;7.33;;
71629;SDS011;59479;51.902;8.212;2023-04-15T06:34:42;17.73;;;8.37;;
71629;SDS011;59479;51.902;8.212;2023-04-15T06:37:07;15.47;;;7.80;;
71629;SDS011;59479;51.902;8.212;2023-04-15T06:39:35;14.82;;;8.20;;
71629;SDS011;59479;51.902;8.212;2023-04-15T06:42:00;17.40;;;8.13;;
71629;SDS011;59479;51.902;8.212;2023-04-15T06:44:28;12.95;;;7.45;;
71629;SDS011;59479;51.902;8.212;2023-04-15T06:46:53;14.40;;;8.05;;
71629;SDS011;59479;51.902;8.212;2023-04-15T06:49:18;15.03;;;8.60;;
71629;SDS011;59479;51.902;8.212;2023-04-15T06:51:44;15.97;;;8.70;;
71629;SDS011;59479;51.902;8.212;2023-04-15T06:54:09;18.53;;;8.53;;
71629;SDS011;59479;51.902;8.212;2023-04-15T06:56:34;17.65;;;8.52;;
71629;SDS011;59479;51.902;8.212;2023-04-15T06:59:00;15.50;;;8.60;;
71629;SDS011;59479;51.902;8.212;2023-04-15T07:01:25;15.70;;;8.30;;
71629;SDS011;59479;51.902;8.212;2023-04-15T07:03:51;15.73;;;8.85;;
71629;SDS011;59479;51.902;8.212;2023-04-15T07:06:16;17.73;;;8.23;;
71629;SDS011;59479;51.902;8.212;2023-04-15T07:08:42;14.50;;;8.03;;
71629;SDS011;59479;51.902;8.212;2023-04-15T07:11:07;16.37;;;8.17;;
71629;SDS011;59479;51.902;8.212;2023-04-15T07:13:33;16.27;;;8.87;;
71629;SDS011;59479;51.902;8.212;2023-04-15T07:15:58;17.23;;;8.45;;
71629;SDS011;59479;51.902;8.212;2023-04-15T07:18:24;16.53;;;7.93;;
71629;SDS011;59479;51.902;8.212;2023-04-15T07:20:49;18.77;;;9.80;;
71629;SDS011;59479;51.902;8.212;2023-04-15T07:23:15;18.27;;;9.68;;
71629;SDS011;59479;51.902;8.212;2023-04-15T07:25:41;19.53;;;9.03;;
71629;SDS011;59479;51.902;8.212;2023-04-15T07:28:06;16.73;;;8.40;;
71629;SDS011;59479;51.902;8.212;2023-04-15T07:30:31;19.13;;;9.53;;
71629;SDS011;59479;51.902;8.212;2023-04-15T07:32:57;17.70;;;9.10;;
71629;SDS011;59479;51.902;8.212;2023-04-15T07:35:23;17.20;;;8.30;;
71629;SDS011;59479;51.902;8.212;2023-04-15T07:37:49;14.80;;;7.40;;
71629;SDS011;59479;51.902;8.212;2023-04-15T07:40:15;15.30;;;7.67;;
71629;SDS011;59479;51.902;8.212;2023-04-15T07:42:40;13.73;;;7.68;;
71629;SDS011;59479;51.902;8.212;2023-04-15T07:45:06;13.20;;;6.82;;
71629;SDS011;59479;51.902;8.212;2023-04-15T07:47:32;14.05;;;7.43;;
71629;SDS011;59479;51.902;8.212;2023-04-15T07:49:57;13.70;;;7.07;;
71629;SDS011;59479;51.902;8.212;2023-04-15T07:52:23;15.57;;;7.50;;
71629;SDS011;59479;51.902;8.212;2023-04-15T07:54:48;14.07;;;7.77;;
71629;SDS011;59479;51.902;8.212;2023-04-15T07:57:13;16.70;;;8.50;;
71629;SDS011;59479;51.902;8.212;2023-04-15T07:59:39;15.30;;;8.00;;
71629;SDS011;59479;51.902;8.212;2023-04-15T08:02:04;14.07;;;7.90;;
71629;SDS011;59479;51.902;8.212;2023-04-15T08:04:29;14.82;;;7.50;;
71629;SDS011;59479;51.902;8.212;2023-04-15T08:06:55;16.08;;;8.07;;
71629;SDS011;59479;51.902;8.212;2023-04-15T08:09:20;15.53;;;8.20;;
71629;SDS011;59479;51.902;8.212;2023-04-15T08:11:47;17.10;;;8.60;;
71629;SDS011;59479;51.902;8.212;2023-04-15T08:14:13;17.27;;;8.32;;
71629;SDS011;59479;51.902;8.212;2023-04-15T08:16:38;15.07;;;9.17;;
71629;SDS011;59479;51.902;8.212;2023-04-15T08:19:03;19.43;;;10.10;;
71629;SDS011;59479;51.902;8.212;2023-04-15T08:21:29;20.77;;;10.23;;
71629;SDS011;59479;51.902;8.212;2023-04-15T08:23:54;17.65;;;9.27;;
71629;SDS011;59479;51.902;8.212;2023-04-15T08:26:20;21.33;;;10.20;;
71629;SDS011;59479;51.902;8.212;2023-04-15T08:28:46;19.87;;;9.57;;
71629;SDS011;59479;51.902;8.212;2023-04-15T08:31:12;18.77;;;10.33;;
71629;SDS011;59479;51.902;8.212;2023-04-15T08:33:38;20.33;;;9.82;;
71629;SDS011;59479;51.902;8.212;2023-04-15T08:36:04;21.87;;;10.33;;
71629;SDS011;59479;51.902;8.212;2023-04-15T08:38:30;19.73;;;10.38;;
71629;SDS011;59479;51.902;8.212;2023-04-15T08:40:55;20.53;;;10.57;;
71629;SDS011;59479;51.902;8.212;2023-04-15T08:43:32;21.58;;;10.75;;
71629;SDS011;59479;51.902;8.212;2023-04-15T08:45:59;19.90;;;11.13;;
71629;SDS011;59479;51.902;8.212;2023-04-15T08:48:29;22.17;;;10.73;;
71629;SDS011;59479;51.902;8.212;2023-04-15T08:50:56;18.57;;;9.60;;
71629;SDS011;59479;51.902;8.212;2023-04-15T08:53:23;22.75;;;11.05;;
71629;SDS011;59479;51.902;8.212;2023-04-15T08:55:50;18.67;;;9.88;;
71629;SDS011;59479;51.902;8.212;2023-04-15T08:58:16;17.95;;;9.02;;
71629;SDS011;59479;51.902;8.212;2023-04-15T09:00:43;17.98;;;9.15;;
71629;SDS011;59479;51.902;8.212;2023-04-15T09:03:08;17.67;;;8.45;;
71629;SDS011;59479;51.902;8.212;2023-04-15T09:05:34;14.43;;;7.97;;
71629;SDS011;59479;51.902;8.212;2023-04-15T09:08:01;15.10;;;8.18;;
71629;SDS011;59479;51.902;8.212;2023-04-15T09:10:27;14.05;;;7.35;;
71629;SDS011;59479;51.902;8.212;2023-04-15T09:12:53;15.57;;;8.47;;
71629;SDS011;59479;51.902;8.212;2023-04-15T09:15:19;15.88;;;7.80;;
71629;SDS011;59479;51.902;8.212;2023-04-15T09:17:45;13.63;;;8.23;;
71629;SDS011;59479;51.902;8.212;2023-04-15T09:22:38;12.25;;;6.70;;
71629;SDS011;59479;51.902;8.212;2023-04-15T09:27:46;13.38;;;6.63;;
71629;SDS011;59479;51.902;8.212;2023-04-15T09:30:15;11.73;;;5.35;;
71629;SDS011;59479;51.902;8.212;2023-04-15T09:32:51;11.07;;;5.57;;
71629;SDS011;59479;51.902;8.212;2023-04-15T09:35:18;10.53;;;5.63;;
71629;SDS011;59479;51.902;8.212;2023-04-15T09:37:45;11.35;;;5.72;;
71629;SDS011;59479;51.902;8.212;2023-04-15T09:40:10;11.17;;;5.80;;
71629;SDS011;59479;51.902;8.212;2023-04-15T09:42:36;12.50;;;5.82;;
71629;SDS011;59479;51.902;8.212;2023-04-15T09:45:18;11.70;;;5.38;;
71629;SDS011;59479;51.902;8.212;2023-04-15T09:47:44;11.10;;;5.72;;
71629;SDS011;59479;51.902;8.212;2023-04-15T09:50:09;9.77;;;5.13;;
71629;SDS011;59479;51.902;8.212;2023-04-15T09:52:40;10.53;;;5.27;;
71629;SDS011;59479;51.902;8.212;2023-04-15T09:55:10;9.90;;;5.18;;
71629;SDS011;59479;51.902;8.212;2023-04-15T09:57:36;9.07;;;4.90;;
71629;SDS011;59479;51.902;8.212;2023-04-15T10:00:03;11.55;;;4.55;;
71629;SDS011;59479;51.902;8.212;2023-04-15T10:02:29;9.48;;;4.60;;
71629;SDS011;59479;51.902;8.212;2023-04-15T10:04:55;8.13;;;4.47;;
71629;SDS011;59479;51.902;8.212;2023-04-15T10:07:21;8.88;;;4.60;;
71629;SDS011;59479;51.902;8.212;2023-04-15T10:09:49;7.93;;;4.40;;
71629;SDS011;59479;51.902;8.212;2023-04-15T10:12:18;8.80;;;4.63;;
71629;SDS011;59479;51.902;8.212;2023-04-15T10:14:44;6.88;;;4.07;;
71629;SDS011;59479;51.902;8.212;2023-04-15T10:17:13;7.93;;;4.27;;
71629;SDS011;59479;51.902;8.212;2023-04-15T10:19:42;8.73;;;4.40;;
71629;SDS011;59479;51.902;8.212;2023-04-15T10:22:08;7.53;;;3.80;;
71629;SDS011;59479;51.902;8.212;2023-04-15T10:24:33;7.83;;;4.07;;
71629;SDS011;59479;51.902;8.212;2023-04-15T10:26:59;6.80;;;4.00;;
71629;SDS011;59479;51.902;8.212;2023-04-15T10:29:25;7.35;;;4.10;;
71629;SDS011;59479;51.902;8.212;2023-04-15T10:31:53;8.98;;;4.50;;
71629;SDS011;59479;51.902;8.212;2023-04-15T10:34:20;6.93;;;3.70;;
71629;SDS011;59479;51.902;8.212;2023-04-15T10:36:46;7.53;;;4.03;;
71629;SDS011;59479;51.902;8.212;2023-04-15T10:44:38;7.43;;;3.83;;
71629;SDS011;59479;51.902;8.212;2023-04-15T10:47:13;6.50;;;3.63;;
71629;SDS011;59479;51.902;8.212;2023-04-15T10:49:43;6.95;;;3.80;;
71629;SDS011;59479;51.902;8.212;2023-04-15T10:52:10;6.00;;;3.30;;
71629;SDS011;59479;51.902;8.212;2023-04-15T10:54:36;7.47;;;3.90;;
71629;SDS011;59479;51.902;8.212;2023-04-15T10:59:29;7.43;;;3.75;;
71629;SDS011;59479;51.902;8.212;2023-04-15T11:01:55;6.95;;;3.25;;
71629;SDS011;59479;51.902;8.212;2023-04-15T11:07:59;8.43;;;3.50;;
71629;SDS011;59479;51.902;8.212;2023-04-15T11:12:42;6.20;;;3.60;;
71629;SDS011;59479;51.902;8.212;2023-04-15T11:18:11;7.25;;;3.35;;
71629;SDS011;59479;51.902;8.212;2023-04-15T11:20:38;10.07;;;4.35;;
71629;SDS011;59479;51.902;8.212;2023-04-15T11:23:27;6.05;;;3.42;;
71629;SDS011;59479;51.902;8.212;2023-04-15T11:25:55;6.40;;;4.03;;
71629;SDS011;59479;51.902;8.212;2023-04-15T11:28:24;5.95;;;3.70;;
71629;SDS011;59479;51.902;8.212;2023-04-15T11:30:51;6.57;;;3.65;;
71629;SDS011;59479;51.902;8.212;2023-04-15T11:33:18;7.90;;;3.92;;
71629;SDS011;59479;51.902;8.212;2023-04-15T11:35:43;6.63;;;4.07;;
71629;SDS011;59479;51.902;8.212;2023-04-15T11:38:09;7.37;;;3.80;;
71629;SDS011;59479;51.902;8.212;2023-04-15T11:40:36;7.20;;;4.40;;
71629;SDS011;59479;51.902;8.212;2023-04-15T11:43:18;8.50;;;4.65;;
71629;SDS011;59479;51.902;8.212;2023-04-15T11:45:52;7.30;;;4.53;;
71629;SDS011;59479;51.902;8.212;2023-04-15T11:48:18;8.57;;;4.20;;
71629;SDS011;59479;51.902;8.212;2023-04-15T11:50:44;10.32;;;5.13;;
71629;SDS011;59479;51.902;8.212;2023-04-15T11:53:10;7.85;;;4.80;;
71629;SDS011;59479;51.902;8.212;2023-04-15T11:55:44;9.73;;;5.53;;
71629;SDS011;59479;51.902;8.212;2023-04-15T11:58:18;8.05;;;4.70;;
71629;SDS011;59479;51.902;8.212;2023-04-15T12:03:27;8.38;;;4.95;;
71629;SDS011;59479;51.902;8.212;2023-04-15T12:06:10;8.73;;;4.80;;
71629;SDS011;59479;51.902;8.212;2023-04-15T12:16:35;8.05;;;4.70;;
71629;SDS011;59479;51.902;8.212;2023-04-15T12:19:04;8.52;;;4.72;;
71629;SDS011;59479;51.902;8.212;2023-04-15T12:21:33;8.07;;;4.40;;
71629;SDS011;59479;51.902;8.212;2023-04-15T12:24:01;9.13;;;4.32;;
71629;SDS011;59479;51.902;8.212;2023-04-15T12:26:29;7.50;;;4.00;;
71629;SDS011;59479;51.902;8.212;2023-04-15T12:29:01;7.55;;;4.30;;
71629;SDS011;59479;51.902;8.212;2023-04-15T12:31:26;6.03;;;3.72;;
71629;SDS011;59479;51.902;8.212;2023-04-15T12:33:55;6.87;;;4.27;;
71629;SDS011;59479;51.902;8.212;2023-04-15T12:36:22;5.68;;;3.25;;
71629;SDS011;59479;51.902;8.212;2023-04-15T12:38:47;8.60;;;3.47;;
71629;SDS011;59479;51.902;8.212;2023-04-15T12:41:13;7.60;;;4.93;;
71629;SDS011;59479;51.902;8.212;2023-04-15T12:43:38;5.97;;;3.50;;
71629;SDS011;59479;51.902;8.212;2023-04-15T12:46:03;6.15;;;3.40;;
71629;SDS011;59479;51.902;8.212;2023-04-15T12:48:29;6.37;;;3.63;;
71629;SDS011;59479;51.902;8.212;2023-04-15T12:50:54;5.77;;;3.10;;
71629;SDS011;59479;51.902;8.212;2023-04-15T12:53:20;5.73;;;2.87;;
71629;SDS011;59479;51.902;8.212;2023-04-15T12:55:45;6.60;;;3.50;;
71629;SDS011;59479;51.902;8.212;2023-04-15T12:58:11;4.72;;;2.88;;
71629;SDS011;59479;51.902;8.212;2023-04-15T13:00:36;5.73;;;2.40;;
71629;SDS011;59479;51.902;8.212;2023-04-15T13:03:02;5.93;;;3.07;;
71629;SDS011;59479;51.902;8.212;2023-04-15T13:05:27;5.87;;;3.07;;
71629;SDS011;59479;51.902;8.212;2023-04-15T13:07:52;4.73;;;2.63;;
71629;SDS011;59479;51.902;8.212;2023-04-15T13:10:18;5.88;;;2.75;;
71629;SDS011;59479;51.902;8.212;2023-04-15T13:12:43;4.55;;;2.50;;
71629;SDS011;59479;51.902;8.212;2023-04-15T13:15:10;5.50;;;2.70;;
71629;SDS011;59479;51.902;8.212;2023-04-15T13:17:37;6.60;;;2.70;;
71629;SDS011;59479;51.902;8.212;2023-04-15T13:20:02;6.75;;;3.20;;
71629;SDS011;59479;51.902;8.212;2023-04-15T13:22:28;5.50;;;2.90;;
71629;SDS011;59479;51.902;8.212;2023-04-15T13:24:53;5.70;;;2.90;;
71629;SDS011;59479;51.902;8.212;2023-04-15T13:27:19;7.07;;;3.67;;
71629;SDS011;59479;51.902;8.212;2023-04-15T13:29:45;5.30;;;2.97;;
71629;SDS011;59479;51.902;8.212;2023-04-15T13:32:10;6.00;;;2.90;;
71629;SDS011;59479;51.902;8.212;2023-04-15T13:34:36;5.60;;;2.50;;
71629;SDS011;59479;51.902;8.212;2023-04-15T13:37:07;5.00;;;2.80;;
71629;SDS011;59479;51.902;8.212;2023-04-15T13:39:33;5.22;;;2.72;;
71629;SDS011;59479;51.902;8.212;2023-04-15T13:41:58;5.00;;;2.43;;
71629;SDS011;59479;51.902;8.212;2023-04-15T13:44:24;5.03;;;2.63;;
71629;SDS011;59479;51.902;8.212;2023-04-15T13:46:50;4.90;;;2.90;;
71629;SDS011;59479;51.902;8.212;2023-04-15T13:49:16;4.50;;;2.70;;
71629;SDS011;59479;51.902;8.212;2023-04-15T13:51:41;5.32;;;2.92;;
71629;SDS011;59479;51.902;8.212;2023-04-15T13:54:06;4.93;;;2.60;;
71629;SDS011;59479;51.902;8.212;2023-04-15T13:56:32;5.17;;;3.03;;
71629;SDS011;59479;51.902;8.212;2023-04-15T13:58:57;5.67;;;2.77;;
71629;SDS011;59479;51.902;8.212;2023-04-15T14:01:25;4.95;;;2.78;;
71629;SDS011;59479;51.902;8.212;2023-04-15T14:03:51;4.67;;;2.70;;
71629;SDS011;59479;51.902;8.212;2023-04-15T14:06:16;5.00;;;2.80;;
71629;SDS011;59479;51.902;8.212;2023-04-15T14:08:41;4.93;;;2.63;;
71629;SDS011;59479;51.902;8.212;2023-04-15T14:11:07;4.57;;;2.37;;
71629;SDS011;59479;51.902;8.212;2023-04-15T14:13:32;6.10;;;2.78;;
71629;SDS011;59479;51.902;8.212;2023-04-15T14:15:57;6.15;;;2.40;;
71629;SDS011;59479;51.902;8.212;2023-04-15T14:18:23;4.33;;;2.33;;
71629;SDS011;59479;51.902;8.212;2023-04-15T14:20:48;4.07;;;2.43;;
71629;SDS011;59479;51.902;8.212;2023-04-15T14:23:14;4.67;;;2.50;;
71629;SDS011;59479;51.902;8.212;2023-04-15T14:25:39;4.03;;;2.10;;
71629;SDS011;59479;51.902;8.212;2023-04-15T14:28:04;5.93;;;2.77;;
71629;SDS011;59479;51.902;8.212;2023-04-15T14:30:29;4.70;;;2.87;;
71629;SDS011;59479;51.902;8.212;2023-04-15T14:32:55;4.90;;;2.67;;
71629;SDS011;59479;51.902;8.212;2023-04-15T14:35:20;5.28;;;3.10;;
71629;SDS011;59479;51.902;8.212;2023-04-15T14:37:46;5.72;;;3.22;;
71629;SDS011;59479;51.902;8.212;2023-04-15T14:40:11;6.30;;;3.50;;
71629;SDS011;59479;51.902;8.212;2023-04-15T14:42:36;7.43;;;4.30;;
71629;SDS011;59479;51.902;8.212;2023-04-15T14:45:02;7.77;;;4.03;;
71629;SDS011;59479;51.902;8.212;2023-04-15T14:47:27;7.50;;;4.13;;
71629;SDS011;59479;51.902;8.212;2023-04-15T14:49:52;8.00;;;4.53;;
71629;SDS011;59479;51.902;8.212;2023-04-15T14:52:18;7.03;;;4.10;;
71629;SDS011;59479;51.902;8.212;2023-04-15T14:54:43;6.95;;;4.20;;
71629;SDS011;59479;51.902;8.212;2023-04-15T14:57:08;7.20;;;3.50;;
71629;SDS011;59479;51.902;8.212;2023-04-15T14:59:34;6.67;;;3.97;;
71629;SDS011;59479;51.902;8.212;2023-04-15T15:01:59;6.87;;;4.07;;
71629;SDS011;59479;51.902;8.212;2023-04-15T15:04:25;6.40;;;3.60;;
71629;SDS011;59479;51.902;8.212;2023-04-15T15:06:50;7.70;;;4.30;;